sensor_id;sensor_type;location;lat;lon;timestamp;temperature;humidity
42421;DHT22;28063;48.140;11.588;2023-02-22T14:16:26;18.10;48.20
42421;DHT22;28063;48.140;11.588;2023-02-22T14:21:31;18.30;48.10
42421;DHT22;28063;48.140;11.588;2023-02-22T14:24:04;18.20;47.90
42421;DHT22;28063;48.140;11.588;2023-02-22T14:26:31;18.00;47.90
42421;DHT22;28063;48.140;11.588;2023-02-22T14:29:04;17.70;48.60
42421;DHT22;28063;48.140;11.588;2023-02-22T14:34:15;17.70;48.90
42421;DHT22;28063;48.140;11.588;2023-02-22T14:39:15;18.00;48.30
42421;DHT22;28063;48.140;11.588;2023-02-22T14:41:47;17.90;47.80
42421;DHT22;28063;48.140;11.588;2023-02-22T14:44:15;17.70;47.90
42421;DHT22;28063;48.140;11.588;2023-02-22T14:46:45;17.40;48.10
42421;DHT22;28063;48.140;11.588;2023-02-22T14:49:14;17.10;49.20
42421;DHT22;28063;48.140;11.588;2023-02-22T14:51:48;16.80;49.80
42421;DHT22;28063;48.140;11.588;2023-02-22T14:54:34;16.50;50.30
42421;DHT22;28063;48.140;11.588;2023-02-22T14:57:11;16.40;50.30
42421;DHT22;28063;48.140;11.588;2023-02-22T14:59:45;16.20;50.90
42421;DHT22;28063;48.140;11.588;2023-02-22T15:02:12;16.10;51.40
42421;DHT22;28063;48.140;11.588;2023-02-22T15:04:38;16.00;51.60
42421;DHT22;28063;48.140;11.588;2023-02-22T15:07:08;16.00;52.00
42421;DHT22;28063;48.140;11.588;2023-02-22T15:09:43;15.90;52.20
42421;DHT22;28063;48.140;11.588;2023-02-22T15:12:15;15.90;52.30
42421;DHT22;28063;48.140;11.588;2023-02-22T15:14:45;15.80;52.70
42421;DHT22;28063;48.140;11.588;2023-02-22T15:17:16;15.70;53.00
42421;DHT22;28063;48.140;11.588;2023-02-22T15:19:42;15.60;53.50
42421;DHT22;28063;48.140;11.588;2023-02-22T15:22:17;15.50;53.80
42421;DHT22;28063;48.140;11.588;2023-02-22T15:24:44;15.50;54.20
42421;DHT22;28063;48.140;11.588;2023-02-22T15:27:13;15.40;54.20
42421;DHT22;28063;48.140;11.588;2023-02-22T15:29:40;15.40;54.50
42421;DHT22;28063;48.140;11.588;2023-02-22T15:32:17;15.30;54.70
42421;DHT22;28063;48.140;11.588;2023-02-22T15:34:43;15.20;55.00
42421;DHT22;28063;48.140;11.588;2023-02-22T15:37:19;15.20;55.30
42421;DHT22;28063;48.140;11.588;2023-02-22T15:39:49;15.10;55.60
42421;DHT22;28063;48.140;11.588;2023-02-22T15:42:26;15.00;55.80
42421;DHT22;28063;48.140;11.588;2023-02-22T15:44:54;15.00;56.20
42421;DHT22;28063;48.140;11.588;2023-02-22T15:47:21;14.90;56.50
42421;DHT22;28063;48.140;11.588;2023-02-22T15:52:32;14.70;55.90
42421;DHT22;28063;48.140;11.588;2023-02-22T15:54:58;14.60;55.30
42421;DHT22;28063;48.140;11.588;2023-02-22T15:57:24;14.60;55.50
42421;DHT22;28063;48.140;11.588;2023-02-22T15:59:52;14.50;55.60
42421;DHT22;28063;48.140;11.588;2023-02-22T16:02:19;14.40;55.70
42421;DHT22;28063;48.140;11.588;2023-02-22T16:04:48;14.40;55.80
42421;DHT22;28063;48.140;11.588;2023-02-22T16:07:13;14.30;56.00
42421;DHT22;28063;48.140;11.588;2023-02-22T16:09:48;14.20;56.20
42421;DHT22;28063;48.140;11.588;2023-02-22T16:14:46;14.10;56.70
42421;DHT22;28063;48.140;11.588;2023-02-22T16:19:57;14.00;56.90
42421;DHT22;28063;48.140;11.588;2023-02-22T16:22:28;13.90;57.10
42421;DHT22;28063;48.140;11.588;2023-02-22T16:28:21;13.80;57.70
42421;DHT22;28063;48.140;11.588;2023-02-22T16:30:34;13.70;57.80
42421;DHT22;28063;48.140;11.588;2023-02-22T16:33:02;13.60;58.00
42421;DHT22;28063;48.140;11.588;2023-02-22T16:35:29;13.60;58.10
42421;DHT22;28063;48.140;11.588;2023-02-22T16:38:00;13.50;58.20
42421;DHT22;28063;48.140;11.588;2023-02-22T16:40:30;13.40;58.40
42421;DHT22;28063;48.140;11.588;2023-02-22T16:43:03;13.30;58.60
42421;DHT22;28063;48.140;11.588;2023-02-22T16:45:30;13.30;58.80
42421;DHT22;28063;48.140;11.588;2023-02-22T16:47:55;13.20;59.10
42421;DHT22;28063;48.140;11.588;2023-02-22T16:50:21;13.10;59.10
42421;DHT22;28063;48.140;11.588;2023-02-22T16:52:48;13.10;59.30
42421;DHT22;28063;48.140;11.588;2023-02-22T16:55:15;13.00;59.00
42421;DHT22;28063;48.140;11.588;2023-02-22T16:57:42;13.00;59.40
42421;DHT22;28063;48.140;11.588;2023-02-22T17:00:13;13.00;58.80
42421;DHT22;28063;48.140;11.588;2023-02-22T17:02:39;12.90;58.80
42421;DHT22;28063;48.140;11.588;2023-02-22T17:05:05;12.80;59.00
42421;DHT22;28063;48.140;11.588;2023-02-22T17:07:32;12.70;59.20
42421;DHT22;28063;48.140;11.588;2023-02-22T17:09:57;12.60;59.30
42421;DHT22;28063;48.140;11.588;2023-02-22T17:12:24;12.60;59.60
42421;DHT22;28063;48.140;11.588;2023-02-22T17:14:50;12.50;59.70
42421;DHT22;28063;48.140;11.588;2023-02-22T17:17:16;12.40;59.80
42421;DHT22;28063;48.140;11.588;2023-02-22T17:19:42;12.30;60.00
42421;DHT22;28063;48.140;11.588;2023-02-22T17:22:26;12.20;60.30
42421;DHT22;28063;48.140;11.588;2023-02-22T17:24:51;12.20;60.70
42421;DHT22;28063;48.140;11.588;2023-02-22T17:27:17;12.10;60.80
42421;DHT22;28063;48.140;11.588;2023-02-22T17:29:42;12.00;60.80
42421;DHT22;28063;48.140;11.588;2023-02-22T17:32:09;11.90;61.20
42421;DHT22;28063;48.140;11.588;2023-02-22T17:34:35;11.80;61.40
42421;DHT22;28063;48.140;11.588;2023-02-22T17:37:00;11.80;61.80
42421;DHT22;28063;48.140;11.588;2023-02-22T17:39:26;11.70;62.00
42421;DHT22;28063;48.140;11.588;2023-02-22T17:41:52;11.70;62.40
42421;DHT22;28063;48.140;11.588;2023-02-22T17:44:22;11.70;62.50
42421;DHT22;28063;48.140;11.588;2023-02-22T17:46:48;11.60;62.50
42421;DHT22;28063;48.140;11.588;2023-02-22T17:49:14;11.60;62.60
42421;DHT22;28063;48.140;11.588;2023-02-22T17:51:39;11.60;62.70
42421;DHT22;28063;48.140;11.588;2023-02-22T17:54:05;11.60;62.90
42421;DHT22;28063;48.140;11.588;2023-02-22T17:56:30;11.60;63.00
42421;DHT22;28063;48.140;11.588;2023-02-22T17:58:56;11.60;63.10
42421;DHT22;28063;48.140;11.588;2023-02-22T18:01:23;11.60;63.10
42421;DHT22;28063;48.140;11.588;2023-02-22T18:03:50;11.60;63.30
42421;DHT22;28063;48.140;11.588;2023-02-22T18:06:16;11.60;63.40
42421;DHT22;28063;48.140;11.588;2023-02-22T18:08:46;11.50;63.60
42421;DHT22;28063;48.140;11.588;2023-02-22T18:11:13;11.60;63.80
42421;DHT22;28063;48.140;11.588;2023-02-22T18:13:38;11.50;63.90
42421;DHT22;28063;48.140;11.588;2023-02-22T18:16:04;11.50;64.00
42421;DHT22;28063;48.140;11.588;2023-02-22T18:18:30;11.50;64.10
42421;DHT22;28063;48.140;11.588;2023-02-22T18:20:56;11.50;64.40
42421;DHT22;28063;48.140;11.588;2023-02-22T18:23:25;11.50;64.60
42421;DHT22;28063;48.140;11.588;2023-02-22T18:25:53;11.40;64.90
42421;DHT22;28063;48.140;11.588;2023-02-22T18:28:20;11.40;65.00
42421;DHT22;28063;48.140;11.588;2023-02-22T18:30:46;11.30;65.30
42421;DHT22;28063;48.140;11.588;2023-02-22T18:33:12;11.30;65.60
42421;DHT22;28063;48.140;11.588;2023-02-22T18:35:39;11.20;66.00
42421;DHT22;28063;48.140;11.588;2023-02-22T18:38:05;11.20;66.50
42421;DHT22;28063;48.140;11.588;2023-02-22T18:40:32;11.10;66.90
42421;DHT22;28063;48.140;11.588;2023-02-22T18:42:57;11.00;67.30
42421;DHT22;28063;48.140;11.588;2023-02-22T18:45:23;10.90;67.40
42421;DHT22;28063;48.140;11.588;2023-02-22T18:47:48;10.80;67.50
42421;DHT22;28063;48.140;11.588;2023-02-22T18:50:14;10.70;67.80
42421;DHT22;28063;48.140;11.588;2023-02-22T18:52:42;10.70;68.20
42421;DHT22;28063;48.140;11.588;2023-02-22T18:55:15;10.60;68.50
42421;DHT22;28063;48.140;11.588;2023-02-22T18:57:40;10.60;68.70
42421;DHT22;28063;48.140;11.588;2023-02-22T19:00:07;10.60;69.00
42421;DHT22;28063;48.140;11.588;2023-02-22T19:02:33;10.60;69.20
42421;DHT22;28063;48.140;11.588;2023-02-22T19:04:58;10.50;69.30
42421;DHT22;28063;48.140;11.588;2023-02-22T19:07:24;10.50;69.60
42421;DHT22;28063;48.140;11.588;2023-02-22T19:09:50;10.50;69.80
42421;DHT22;28063;48.140;11.588;2023-02-22T19:12:16;10.50;70.00
42421;DHT22;28063;48.140;11.588;2023-02-22T19:14:42;10.40;70.20
42421;DHT22;28063;48.140;11.588;2023-02-22T19:17:10;10.40;70.40
42421;DHT22;28063;48.140;11.588;2023-02-22T19:19:41;10.30;70.60
42421;DHT22;28063;48.140;11.588;2023-02-22T19:22:06;10.20;70.80
42421;DHT22;28063;48.140;11.588;2023-02-22T19:24:32;10.20;71.10
42421;DHT22;28063;48.140;11.588;2023-02-22T19:26:57;10.20;71.30
42421;DHT22;28063;48.140;11.588;2023-02-22T19:29:24;10.10;71.50
42421;DHT22;28063;48.140;11.588;2023-02-22T19:31:50;10.10;71.90
42421;DHT22;28063;48.140;11.588;2023-02-22T19:34:16;10.10;72.50
42421;DHT22;28063;48.140;11.588;2023-02-22T19:36:44;10.20;73.10
42421;DHT22;28063;48.140;11.588;2023-02-22T19:39:19;10.20;73.20
42421;DHT22;28063;48.140;11.588;2023-02-22T19:41:45;10.20;73.60
42421;DHT22;28063;48.140;11.588;2023-02-22T19:44:11;10.20;73.90
42421;DHT22;28063;48.140;11.588;2023-02-22T19:46:37;10.20;74.20
42421;DHT22;28063;48.140;11.588;2023-02-22T19:49:03;10.20;74.20
42421;DHT22;28063;48.140;11.588;2023-02-22T19:51:30;10.20;74.30
42421;DHT22;28063;48.140;11.588;2023-02-22T19:53:56;10.20;74.50
42421;DHT22;28063;48.140;11.588;2023-02-22T19:56:23;10.10;74.70
42421;DHT22;28063;48.140;11.588;2023-02-22T19:58:52;10.10;74.90
42421;DHT22;28063;48.140;11.588;2023-02-22T20:01:21;10.00;75.20
42421;DHT22;28063;48.140;11.588;2023-02-22T20:03:51;10.00;75.60
42421;DHT22;28063;48.140;11.588;2023-02-22T20:06:22;9.90;75.80
42421;DHT22;28063;48.140;11.588;2023-02-22T20:08:53;9.90;76.00
42421;DHT22;28063;48.140;11.588;2023-02-22T20:11:19;9.90;76.40
42421;DHT22;28063;48.140;11.588;2023-02-22T20:13:45;9.80;76.80
42421;DHT22;28063;48.140;11.588;2023-02-22T20:16:10;9.80;77.50
42421;DHT22;28063;48.140;11.588;2023-02-22T20:18:43;9.80;77.20
42421;DHT22;28063;48.140;11.588;2023-02-22T20:21:10;9.70;77.40
42421;DHT22;28063;48.140;11.588;2023-02-22T20:23:36;9.70;77.80
42421;DHT22;28063;48.140;11.588;2023-02-22T20:26:04;9.70;78.10
42421;DHT22;28063;48.140;11.588;2023-02-22T20:28:32;9.60;78.30
42421;DHT22;28063;48.140;11.588;2023-02-22T20:30:58;9.60;78.50
42421;DHT22;28063;48.140;11.588;2023-02-22T20:33:24;9.60;78.80
42421;DHT22;28063;48.140;11.588;2023-02-22T20:35:50;9.60;78.90
42421;DHT22;28063;48.140;11.588;2023-02-22T20:38:15;9.60;79.00
42421;DHT22;28063;48.140;11.588;2023-02-22T20:40:43;9.60;79.00
42421;DHT22;28063;48.140;11.588;2023-02-22T20:43:10;9.60;79.30
42421;DHT22;28063;48.140;11.588;2023-02-22T20:45:37;9.60;79.50
42421;DHT22;28063;48.140;11.588;2023-02-22T20:48:02;9.60;79.60
42421;DHT22;28063;48.140;11.588;2023-02-22T20:50:28;9.60;79.70
42421;DHT22;28063;48.140;11.588;2023-02-22T20:52:53;9.60;79.80
42421;DHT22;28063;48.140;11.588;2023-02-22T20:55:19;9.60;79.90
42421;DHT22;28063;48.140;11.588;2023-02-22T20:57:45;9.60;80.20
42421;DHT22;28063;48.140;11.588;2023-02-22T21:00:11;9.50;80.20
42421;DHT22;28063;48.140;11.588;2023-02-22T21:02:36;9.50;80.40
42421;DHT22;28063;48.140;11.588;2023-02-22T21:05:05;9.50;80.70
42421;DHT22;28063;48.140;11.588;2023-02-22T21:07:31;9.40;80.70
42421;DHT22;28063;48.140;11.588;2023-02-22T21:09:56;9.40;81.10
42421;DHT22;28063;48.140;11.588;2023-02-22T21:12:22;9.30;81.30
42421;DHT22;28063;48.140;11.588;2023-02-22T21:14:48;9.30;81.40
42421;DHT22;28063;48.140;11.588;2023-02-22T21:17:13;9.30;81.80
42421;DHT22;28063;48.140;11.588;2023-02-22T21:19:40;9.30;82.10
42421;DHT22;28063;48.140;11.588;2023-02-22T21:22:06;9.20;82.30
42421;DHT22;28063;48.140;11.588;2023-02-22T21:24:33;9.30;82.40
42421;DHT22;28063;48.140;11.588;2023-02-22T21:26:58;9.30;82.40
42421;DHT22;28063;48.140;11.588;2023-02-22T21:29:24;9.30;82.50
42421;DHT22;28063;48.140;11.588;2023-02-22T21:31:50;9.30;82.40
42421;DHT22;28063;48.140;11.588;2023-02-22T21:34:15;9.30;82.40
42421;DHT22;28063;48.140;11.588;2023-02-22T21:36:42;9.30;82.40
42421;DHT22;28063;48.140;11.588;2023-02-22T21:39:09;9.30;82.40
42421;DHT22;28063;48.140;11.588;2023-02-22T21:41:43;9.30;82.40
42421;DHT22;28063;48.140;11.588;2023-02-22T21:44:08;9.30;82.50
42421;DHT22;28063;48.140;11.588;2023-02-22T21:46:34;9.30;82.40
42421;DHT22;28063;48.140;11.588;2023-02-22T21:49:00;9.30;82.50
42421;DHT22;28063;48.140;11.588;2023-02-22T21:51:26;9.40;82.60
42421;DHT22;28063;48.140;11.588;2023-02-22T21:54:05;9.40;82.60
42421;DHT22;28063;48.140;11.588;2023-02-22T21:56:32;9.30;82.50
42421;DHT22;28063;48.140;11.588;2023-02-22T22:01:28;9.30;82.80
42421;DHT22;28063;48.140;11.588;2023-02-22T22:03:54;9.30;83.10
42421;DHT22;28063;48.140;11.588;2023-02-22T22:06:20;9.30;83.30
42421;DHT22;28063;48.140;11.588;2023-02-22T22:08:46;9.30;83.50
42421;DHT22;28063;48.140;11.588;2023-02-22T22:11:12;9.20;83.60
42421;DHT22;28063;48.140;11.588;2023-02-22T22:13:39;9.20;83.80
42421;DHT22;28063;48.140;11.588;2023-02-22T22:16:05;9.20;84.00
42421;DHT22;28063;48.140;11.588;2023-02-22T22:18:33;9.20;84.20
42421;DHT22;28063;48.140;11.588;2023-02-22T22:20:59;9.20;84.40
42421;DHT22;28063;48.140;11.588;2023-02-22T22:23:28;9.20;84.50
42421;DHT22;28063;48.140;11.588;2023-02-22T22:25:59;9.10;84.60
42421;DHT22;28063;48.140;11.588;2023-02-22T22:28:26;9.10;84.80
42421;DHT22;28063;48.140;11.588;2023-02-22T22:30:51;9.10;84.90
42421;DHT22;28063;48.140;11.588;2023-02-22T22:33:18;9.10;84.90
42421;DHT22;28063;48.140;11.588;2023-02-22T22:35:43;9.10;85.00
42421;DHT22;28063;48.140;11.588;2023-02-22T22:38:09;9.10;85.20
42421;DHT22;28063;48.140;11.588;2023-02-22T22:40:35;9.10;85.40
42421;DHT22;28063;48.140;11.588;2023-02-22T22:43:03;9.10;85.50
42421;DHT22;28063;48.140;11.588;2023-02-22T22:45:30;9.10;85.70
42421;DHT22;28063;48.140;11.588;2023-02-22T22:47:57;9.10;85.90
42421;DHT22;28063;48.140;11.588;2023-02-22T22:50:22;9.10;86.00
42421;DHT22;28063;48.140;11.588;2023-02-22T22:52:53;9.00;86.10
42421;DHT22;28063;48.140;11.588;2023-02-22T22:55:22;9.00;86.40
42421;DHT22;28063;48.140;11.588;2023-02-22T22:57:50;9.00;86.60
42421;DHT22;28063;48.140;11.588;2023-02-22T23:00:16;9.00;86.90
42421;DHT22;28063;48.140;11.588;2023-02-22T23:02:54;9.10;87.10
42421;DHT22;28063;48.140;11.588;2023-02-22T23:05:25;9.00;87.20
42421;DHT22;28063;48.140;11.588;2023-02-22T23:07:52;9.10;87.40
42421;DHT22;28063;48.140;11.588;2023-02-22T23:10:18;9.10;87.60
42421;DHT22;28063;48.140;11.588;2023-02-22T23:12:44;9.10;87.80
42421;DHT22;28063;48.140;11.588;2023-02-22T23:15:10;9.10;87.90
42421;DHT22;28063;48.140;11.588;2023-02-22T23:17:38;9.00;88.00
42421;DHT22;28063;48.140;11.588;2023-02-22T23:20:07;9.00;88.20
42421;DHT22;28063;48.140;11.588;2023-02-22T23:22:36;9.00;88.50
42421;DHT22;28063;48.140;11.588;2023-02-22T23:25:05;8.90;88.80
42421;DHT22;28063;48.140;11.588;2023-02-22T23:27:31;8.90;89.00
42421;DHT22;28063;48.140;11.588;2023-02-22T23:29:57;8.90;89.20
42421;DHT22;28063;48.140;11.588;2023-02-22T23:32:23;8.90;90.00
42421;DHT22;28063;48.140;11.588;2023-02-22T23:34:51;8.80;89.70
42421;DHT22;28063;48.140;11.588;2023-02-22T23:37:16;8.80;89.90
42421;DHT22;28063;48.140;11.588;2023-02-22T23:39:47;8.80;90.00
42421;DHT22;28063;48.140;11.588;2023-02-22T23:42:15;8.80;90.10
42421;DHT22;28063;48.140;11.588;2023-02-22T23:44:41;8.80;90.20
42421;DHT22;28063;48.140;11.588;2023-02-22T23:47:07;8.70;90.30
42421;DHT22;28063;48.140;11.588;2023-02-22T23:49:34;8.70;90.40
42421;DHT22;28063;48.140;11.588;2023-02-22T23:52:06;8.60;90.50
42421;DHT22;28063;48.140;11.588;2023-02-22T23:54:32;8.60;90.70
42421;DHT22;28063;48.140;11.588;2023-02-22T23:57:03;8.60;90.80
42421;DHT22;28063;48.140;11.588;2023-02-22T23:59:30;8.60;91.00
